createdAt,value
2016-12-06T00:00:55.366Z,2.33
2016-12-06T00:01:55.365Z,2.28
2016-12-06T00:02:55.361Z,2.33
2016-12-06T00:03:54.701Z,2.32
2016-12-06T00:04:55.358Z,2.25
2016-12-06T00:05:58.381Z,2.28
2016-12-06T00:06:54.685Z,2.21
2016-12-06T00:07:55.345Z,2.18
2016-12-06T00:08:55.337Z,2.22
2016-12-06T00:09:55.338Z,2.23
2016-12-06T00:10:55.037Z,2.21
2016-12-06T00:11:55.317Z,2.08
2016-12-06T00:12:55.329Z,2.14
2016-12-06T00:13:55.317Z,2.22
2016-12-06T00:14:55.313Z,2.18
2016-12-06T00:15:55.309Z,2.18
2016-12-06T00:16:54.661Z,2.28
2016-12-06T00:17:54.981Z,2.18
2016-12-06T00:18:55.305Z,2.12
2016-12-06T00:19:55.305Z,2.21
2016-12-06T00:20:55.297Z,2.16
2016-12-06T00:21:55.293Z,2.14
2016-12-06T00:22:55.285Z,2.19
2016-12-06T00:23:54.637Z,2.16
2016-12-06T00:24:55.277Z,2.16
2016-12-06T00:25:55.281Z,2.21
2016-12-06T00:26:55.273Z,2.19
2016-12-06T00:27:55.285Z,2.14
2016-12-06T00:28:55.265Z,2.14
2016-12-06T00:29:54.929Z,2.16
2016-12-06T00:30:54.609Z,2.08
2016-12-06T00:31:55.249Z,2.12
2016-12-06T00:32:55.245Z,2.04
2016-12-06T00:33:55.245Z,2.07
2016-12-06T00:34:54.918Z,2.05
2016-12-06T00:35:54.910Z,2.07
2016-12-06T00:36:54.906Z,2.1
2016-12-06T00:37:54.901Z,2.07
2016-12-06T00:38:55.222Z,2.1
2016-12-06T00:39:54.890Z,2.03
2016-12-06T00:40:54.891Z,2.03
2016-12-06T00:41:54.894Z,2
2016-12-06T00:42:54.886Z,1.97
2016-12-06T00:43:55.210Z,1.95
2016-12-06T00:44:54.870Z,1.98
2016-12-06T00:45:55.206Z,1.85
2016-12-06T00:46:54.858Z,1.89
2016-12-06T00:47:54.854Z,1.86
2016-12-06T00:48:55.186Z,1.85
2016-12-06T00:49:55.187Z,1.88
2016-12-06T00:50:54.518Z,1.89
2016-12-06T00:51:55.166Z,1.82
2016-12-06T00:52:55.158Z,1.82
2016-12-06T00:53:54.832Z,1.85
2016-12-06T00:54:54.515Z,1.84
2016-12-06T00:55:55.154Z,1.85
2016-12-06T00:56:54.826Z,1.86
2016-12-06T00:57:55.151Z,1.86
2016-12-06T00:58:54.818Z,1.82
2016-12-06T00:59:54.814Z,1.88
2016-12-06T01:00:54.803Z,1.88
2016-12-06T01:01:55.123Z,1.89
2016-12-06T01:02:54.799Z,1.89
2016-12-06T01:03:55.126Z,1.85
2016-12-06T01:04:55.126Z,1.86
2016-12-06T01:05:54.791Z,1.95
2016-12-06T01:06:55.111Z,1.86
2016-12-06T01:07:55.115Z,1.85
2016-12-06T01:08:54.775Z,1.82
2016-12-06T01:09:54.783Z,1.81
2016-12-06T01:10:55.099Z,1.79
2016-12-06T01:11:54.439Z,1.75
2016-12-06T01:12:54.763Z,1.7
2016-12-06T01:13:54.763Z,1.76
2016-12-06T01:14:55.087Z,1.67
2016-12-06T01:15:54.439Z,1.71
2016-12-06T01:16:55.075Z,1.74
2016-12-06T01:17:55.059Z,1.74
2016-12-06T01:18:54.415Z,1.74
2016-12-06T01:19:54.731Z,1.78
2016-12-06T01:20:55.055Z,1.68
2016-12-06T01:21:54.395Z,1.71
2016-12-06T01:22:54.723Z,1.64
2016-12-06T01:23:55.051Z,1.61
2016-12-06T01:24:55.042Z,1.67
2016-12-06T01:25:54.715Z,1.64
2016-12-06T01:26:54.711Z,1.61
2016-12-06T01:27:54.707Z,1.63
2016-12-06T01:28:54.695Z,1.6
2016-12-06T01:29:55.024Z,1.63
2016-12-06T01:30:54.688Z,1.64
2016-12-06T01:31:54.687Z,1.7
2016-12-06T01:32:55.011Z,1.64
2016-12-06T01:33:55.011Z,1.64
2016-12-06T01:34:54.684Z,1.64
2016-12-06T01:35:54.343Z,1.56
2016-12-06T01:36:55.008Z,1.56
2016-12-06T01:37:54.996Z,1.68
2016-12-06T01:38:54.659Z,1.7
2016-12-06T01:39:54.983Z,1.61
2016-12-06T01:40:54.655Z,1.68
2016-12-06T01:41:54.976Z,1.64
2016-12-06T01:42:54.648Z,1.63
2016-12-06T01:43:54.647Z,1.64
2016-12-06T01:44:54.972Z,1.74
2016-12-06T01:45:54.636Z,1.6
2016-12-06T01:46:54.631Z,1.64
2016-12-06T01:47:54.956Z,1.63
2016-12-06T01:48:54.628Z,1.58
2016-12-06T01:49:54.620Z,1.63
2016-12-06T01:50:54.943Z,1.67
2016-12-06T01:51:54.936Z,1.7
2016-12-06T01:52:54.600Z,1.68
2016-12-06T01:53:54.932Z,1.71
2016-12-06T01:54:54.920Z,1.75
2016-12-06T01:55:54.924Z,1.67
2016-12-06T01:56:54.588Z,1.71
2016-12-06T01:57:54.916Z,1.67
2016-12-06T01:58:54.580Z,1.63
2016-12-06T01:59:54.604Z,1.68
2016-12-06T02:00:54.248Z,1.75
2016-12-06T02:01:54.896Z,1.68
2016-12-06T02:02:54.892Z,1.7
2016-12-06T02:03:54.568Z,1.61
2016-12-06T02:04:54.548Z,1.64
2016-12-06T02:05:54.880Z,1.63
2016-12-06T02:06:54.876Z,1.56
2016-12-06T02:07:54.877Z,1.6
2016-12-06T02:08:54.544Z,1.61
2016-12-06T02:09:54.865Z,1.64
2016-12-06T02:10:54.860Z,1.52
2016-12-06T02:11:54.865Z,1.66
2016-12-06T02:12:54.529Z,1.56
2016-12-06T02:13:54.849Z,1.52
2016-12-06T02:14:54.525Z,1.61
2016-12-06T02:15:54.849Z,1.57
2016-12-06T02:16:54.185Z,1.64
2016-12-06T02:17:54.835Z,1.53
2016-12-06T02:18:54.837Z,1.6
2016-12-06T02:19:54.825Z,1.57
2016-12-06T02:20:54.497Z,1.53
2016-12-06T02:21:54.166Z,1.68
2016-12-06T02:22:54.817Z,1.66
2016-12-06T02:23:54.818Z,1.61
2016-12-06T02:24:54.805Z,1.61
2016-12-06T02:25:54.146Z,1.7
2016-12-06T02:26:54.790Z,1.58
2016-12-06T02:27:54.462Z,1.64
2016-12-06T02:28:54.454Z,1.57
2016-12-06T02:29:54.130Z,1.64
2016-12-06T02:30:54.774Z,1.6
2016-12-06T02:31:54.782Z,1.64
2016-12-06T02:32:54.446Z,1.6
2016-12-06T02:33:54.766Z,1.63
2016-12-06T02:34:54.438Z,1.64
2016-12-06T02:35:54.754Z,1.67
2016-12-06T02:36:54.434Z,1.67
2016-12-06T02:37:54.754Z,1.61
2016-12-06T02:38:54.418Z,1.66
2016-12-06T02:39:54.418Z,1.67
2016-12-06T02:40:54.415Z,1.6
2016-12-06T02:41:54.406Z,1.74
2016-12-06T02:42:54.738Z,1.66
2016-12-06T02:43:54.726Z,1.68
2016-12-06T02:44:54.699Z,1.68
2016-12-06T02:45:54.723Z,1.75
2016-12-06T02:46:54.715Z,1.74
2016-12-06T02:47:54.387Z,1.74
2016-12-06T02:48:54.383Z,1.68
2016-12-06T02:49:54.735Z,1.67
2016-12-06T02:50:54.371Z,1.71
2016-12-06T02:51:54.375Z,1.68
2016-12-06T02:52:54.367Z,1.7
2016-12-06T02:53:54.683Z,1.63
2016-12-06T02:54:54.682Z,1.71
2016-12-06T02:55:54.687Z,1.71
2016-12-06T02:56:54.675Z,1.7
2016-12-06T02:57:54.347Z,1.74
2016-12-06T02:58:54.675Z,1.71
2016-12-06T02:59:54.015Z,1.75
2016-12-06T03:00:54.331Z,1.78
2016-12-06T03:01:54.007Z,1.7
2016-12-06T03:02:54.648Z,1.71
2016-12-06T03:03:54.652Z,1.7
2016-12-06T03:04:54.320Z,1.76
2016-12-06T03:05:53.992Z,1.75
2016-12-06T03:06:54.311Z,1.68
2016-12-06T03:07:54.307Z,1.7
2016-12-06T03:08:54.296Z,1.75
2016-12-06T03:09:54.304Z,1.75
2016-12-06T03:10:53.964Z,1.7
2016-12-06T03:11:54.292Z,1.68
2016-12-06T03:12:54.280Z,1.79
2016-12-06T03:13:54.284Z,1.75
2016-12-06T03:14:54.604Z,1.67
2016-12-06T03:15:54.277Z,1.79
2016-12-06T03:16:54.264Z,1.85
2016-12-06T03:17:54.268Z,1.75
2016-12-06T03:18:54.589Z,1.79
2016-12-06T03:19:54.584Z,1.85
2016-12-06T03:20:54.252Z,1.78
2016-12-06T03:21:54.572Z,1.84
2016-12-06T03:22:54.572Z,1.68
2016-12-06T03:23:54.578Z,1.76
2016-12-06T03:24:54.564Z,1.75
2016-12-06T03:25:54.237Z,1.71
2016-12-06T03:26:54.256Z,1.7
2016-12-06T03:27:54.559Z,1.67
2016-12-06T03:28:54.549Z,1.74
2016-12-06T03:29:53.899Z,1.68
2016-12-06T03:30:53.889Z,1.68
2016-12-06T03:31:54.533Z,1.74
2016-12-06T03:32:54.201Z,1.63
2016-12-06T03:33:54.537Z,1.64
2016-12-06T03:34:54.197Z,1.66
2016-12-06T03:35:54.193Z,1.61
2016-12-06T03:36:54.185Z,1.61
2016-12-06T03:37:54.521Z,1.58
2016-12-06T03:38:54.505Z,1.57
2016-12-06T03:39:54.177Z,1.74
2016-12-06T03:40:54.001Z,1.67
2016-12-06T03:41:54.497Z,1.61
2016-12-06T03:42:54.173Z,1.57
2016-12-06T03:43:54.493Z,1.6
2016-12-06T03:44:54.490Z,1.67
2016-12-06T03:45:54.154Z,1.6
2016-12-06T03:46:54.142Z,1.63
2016-12-06T03:47:54.477Z,1.67
2016-12-06T03:48:54.465Z,1.64
2016-12-06T03:49:54.457Z,1.7
2016-12-06T03:50:54.153Z,1.63
2016-12-06T03:51:54.129Z,1.64
2016-12-06T03:52:54.161Z,1.64
2016-12-06T03:53:54.445Z,1.6
2016-12-06T03:54:54.117Z,1.64
2016-12-06T03:55:53.782Z,1.63
2016-12-06T03:56:54.438Z,1.58
2016-12-06T03:57:54.106Z,1.71
2016-12-06T03:58:54.422Z,1.57
2016-12-06T03:59:54.098Z,1.56
2016-12-06T04:00:53.769Z,1.68
2016-12-06T04:01:54.090Z,1.66
2016-12-06T04:02:54.422Z,1.6
2016-12-06T04:03:54.421Z,1.64
2016-12-06T04:04:54.394Z,1.56
2016-12-06T04:05:54.070Z,1.7
2016-12-06T04:06:54.066Z,1.63
2016-12-06T04:07:54.066Z,1.64
2016-12-06T04:08:54.058Z,1.63
2016-12-06T04:09:54.057Z,1.66
2016-12-06T04:10:53.722Z,1.64
2016-12-06T04:11:54.050Z,1.64
2016-12-06T04:12:54.054Z,1.66
2016-12-06T04:13:54.366Z,1.7
2016-12-06T04:14:54.366Z,1.66
2016-12-06T04:15:53.710Z,1.58
2016-12-06T04:16:54.022Z,1.66
2016-12-06T04:17:54.350Z,1.64
2016-12-06T04:18:54.347Z,1.63
2016-12-06T04:19:54.350Z,1.61
2016-12-06T04:20:53.682Z,1.6
2016-12-06T04:21:54.010Z,1.66
2016-12-06T04:22:54.330Z,1.63
2016-12-06T04:23:54.330Z,1.67
2016-12-06T04:24:54.359Z,1.64
2016-12-06T04:25:53.987Z,1.64
2016-12-06T04:26:53.991Z,1.57
2016-12-06T04:27:54.314Z,1.75
2016-12-06T04:28:53.975Z,1.58
2016-12-06T04:29:53.971Z,1.64
2016-12-06T04:30:54.295Z,1.68
2016-12-06T04:31:53.643Z,1.64
2016-12-06T04:32:54.327Z,1.64
2016-12-06T04:33:54.287Z,1.61
2016-12-06T04:34:53.963Z,1.68
2016-12-06T04:35:54.271Z,1.71
2016-12-06T04:36:54.271Z,1.61
2016-12-06T04:37:53.943Z,1.61
2016-12-06T04:38:54.271Z,1.67
2016-12-06T04:39:54.267Z,1.53
2016-12-06T04:40:53.615Z,1.6
2016-12-06T04:41:54.251Z,1.67
2016-12-06T04:42:53.928Z,1.71
2016-12-06T04:43:53.919Z,1.52
2016-12-06T04:44:54.251Z,1.68
2016-12-06T04:45:54.239Z,1.6
2016-12-06T04:46:54.235Z,1.49
2016-12-06T04:47:53.576Z,1.48
2016-12-06T04:48:53.891Z,1.45
2016-12-06T04:49:54.224Z,1.38
2016-12-06T04:50:54.223Z,1.38
2016-12-06T04:51:53.883Z,1.34
2016-12-06T04:52:54.203Z,1.38
2016-12-06T04:53:53.879Z,1.43
2016-12-06T04:54:53.871Z,1.45
2016-12-06T04:55:54.203Z,1.48
2016-12-06T04:56:53.859Z,1.45
2016-12-06T04:57:53.867Z,1.48
2016-12-06T04:58:53.852Z,1.46
2016-12-06T04:59:53.860Z,1.43
2016-12-06T05:00:54.180Z,1.48
2016-12-06T05:01:54.179Z,1.5
2016-12-06T05:02:53.840Z,1.48
2016-12-06T05:03:53.516Z,1.48
2016-12-06T05:04:54.164Z,1.5
2016-12-06T05:05:54.160Z,1.5
2016-12-06T05:06:53.828Z,1.48
2016-12-06T05:07:53.816Z,1.48
2016-12-06T05:08:53.816Z,1.48
2016-12-06T05:09:54.148Z,1.46
2016-12-06T05:10:54.132Z,1.46
2016-12-06T05:11:54.164Z,1.46
2016-12-06T05:12:54.132Z,1.46
2016-12-06T05:13:54.124Z,1.49
2016-12-06T05:14:53.796Z,1.49
2016-12-06T05:15:54.120Z,1.46
2016-12-06T05:16:54.116Z,1.5
2016-12-06T05:17:54.112Z,1.43
2016-12-06T05:18:54.124Z,1.49
2016-12-06T05:19:53.452Z,1.49
2016-12-06T05:20:54.100Z,1.46
2016-12-06T05:21:54.096Z,1.58
2016-12-06T05:22:54.096Z,1.48
2016-12-06T05:23:53.760Z,1.5
2016-12-06T05:24:53.756Z,1.52
2016-12-06T05:25:54.053Z,1.45
2016-12-06T05:26:54.073Z,1.48
2016-12-06T05:27:54.076Z,1.48
2016-12-06T05:28:54.063Z,1.46
2016-12-06T05:29:54.060Z,1.45
2016-12-06T05:30:53.737Z,1.48
2016-12-06T05:31:53.729Z,1.46
2016-12-06T05:32:53.737Z,1.53
2016-12-06T05:33:53.721Z,1.48
2016-12-06T05:34:54.041Z,1.5
2016-12-06T05:35:53.708Z,1.45
2016-12-06T05:36:53.369Z,1.42
2016-12-06T05:37:53.705Z,1.32
2016-12-06T05:38:54.021Z,1.38
2016-12-06T05:39:53.705Z,1.36
2016-12-06T05:40:54.021Z,1.3
2016-12-06T05:41:53.685Z,1.32
2016-12-06T05:42:53.677Z,1.32
2016-12-06T05:43:53.669Z,1.27
2016-12-06T05:44:53.674Z,1.28
2016-12-06T05:45:53.661Z,1.24
2016-12-06T05:46:53.661Z,1.24
2016-12-06T05:47:53.661Z,1.22
2016-12-06T05:48:53.653Z,1.21
2016-12-06T05:49:53.681Z,1.22
2016-12-06T05:50:53.649Z,1.16
2016-12-06T05:51:53.642Z,1.28
2016-12-06T05:52:53.637Z,1.32
2016-12-06T05:53:53.309Z,1.38
2016-12-06T05:54:53.641Z,1.32
2016-12-06T05:55:53.625Z,1.34
2016-12-06T05:56:53.954Z,1.27
2016-12-06T05:57:53.946Z,1.22
2016-12-06T05:58:53.617Z,1.3
2016-12-06T05:59:53.942Z,1.27
2016-12-06T06:00:53.610Z,1.28
2016-12-06T06:01:53.937Z,1.28
2016-12-06T06:02:53.602Z,1.32
2016-12-06T06:03:53.606Z,1.27
2016-12-06T06:04:53.930Z,1.2
2016-12-06T06:05:53.922Z,1.28
2016-12-06T06:06:53.582Z,1.2
2016-12-06T06:07:53.262Z,1.22
2016-12-06T06:08:53.910Z,1.2
2016-12-06T06:09:53.922Z,1.24
2016-12-06T06:10:53.898Z,1.16
2016-12-06T06:11:53.258Z,1.27
2016-12-06T06:12:53.234Z,1.27
2016-12-06T06:13:53.890Z,1.32
2016-12-06T06:14:53.882Z,1.2
2016-12-06T06:15:53.554Z,1.38
2016-12-06T06:16:53.542Z,1.34
2016-12-06T06:17:53.870Z,1.31
2016-12-06T06:18:53.871Z,1.31
2016-12-06T06:19:53.867Z,1.38
2016-12-06T06:20:53.862Z,1.36
2016-12-06T06:21:53.862Z,1.34
2016-12-06T06:22:53.855Z,1.34
2016-12-06T06:23:53.851Z,1.3
2016-12-06T06:24:53.523Z,1.22
2016-12-06T06:25:53.839Z,1.24
2016-12-06T06:26:53.839Z,1.25
2016-12-06T06:27:53.835Z,1.2
2016-12-06T06:28:53.831Z,1.24
2016-12-06T06:29:53.827Z,1.2
2016-12-06T06:30:53.495Z,1.25
2016-12-06T06:31:53.520Z,1.12
2016-12-06T06:32:53.815Z,1.12
2016-12-06T06:33:53.807Z,1.07
2016-12-06T06:34:53.807Z,1.03
2016-12-06T06:35:53.475Z,1.18
2016-12-06T06:36:53.471Z,1.07
2016-12-06T06:37:53.791Z,1.09
2016-12-06T06:38:53.786Z,1.03
2016-12-06T06:39:53.783Z,1.04
2016-12-06T06:40:53.779Z,1.06
2016-12-06T06:41:53.775Z,1.04
2016-12-06T06:42:53.771Z,1.03
2016-12-06T06:43:53.767Z,1.06
2016-12-06T06:44:53.439Z,0.96
2016-12-06T06:45:53.759Z,1.03
2016-12-06T06:46:53.759Z,1.03
2016-12-06T06:47:53.427Z,1.03
2016-12-06T06:48:53.751Z,1.09
2016-12-06T06:49:53.751Z,1.07
2016-12-06T06:50:53.747Z,1.07
2016-12-06T06:51:53.731Z,1.04
2016-12-06T06:52:53.732Z,1.12
2016-12-06T06:53:53.731Z,1.03
2016-12-06T06:54:53.723Z,0.94
2016-12-06T06:55:53.747Z,1.12
2016-12-06T06:56:53.711Z,1.04
2016-12-06T06:57:53.707Z,1.04
2016-12-06T06:58:53.379Z,1.1
2016-12-06T06:59:53.699Z,1.1
2016-12-06T07:00:53.695Z,1.09
2016-12-06T07:01:53.695Z,1.09
2016-12-06T07:02:53.695Z,1.07
2016-12-06T07:03:53.687Z,1.09
2016-12-06T07:04:53.687Z,1.13
2016-12-06T07:05:53.683Z,1.14
2016-12-06T07:06:53.671Z,1.1
2016-12-06T07:07:53.699Z,1.12
2016-12-06T07:08:53.663Z,1.13
2016-12-06T07:09:53.663Z,1.2
2016-12-06T07:10:53.655Z,1.22
2016-12-06T07:11:53.327Z,1.2
2016-12-06T07:12:53.655Z,1.2
2016-12-06T07:13:53.643Z,1.27
2016-12-06T07:14:53.639Z,1.24
2016-12-06T07:15:52.992Z,1.21
2016-12-06T07:16:53.632Z,1.25
2016-12-06T07:17:53.623Z,1.1
2016-12-06T07:18:53.620Z,1.16
2016-12-06T07:19:53.620Z,1.1
2016-12-06T07:20:53.612Z,1.18
2016-12-06T07:21:53.284Z,1.16
2016-12-06T07:22:53.280Z,1.16
2016-12-06T07:23:53.603Z,1.12
2016-12-06T07:24:53.271Z,1.18
2016-12-06T07:25:53.592Z,1.2
2016-12-06T07:26:53.588Z,1.2
2016-12-06T07:27:53.584Z,1.22
2016-12-06T07:28:53.580Z,1.21
2016-12-06T07:29:53.576Z,1.22
2016-12-06T07:30:53.248Z,1.24
2016-12-06T07:31:53.568Z,1.2
2016-12-06T07:32:53.272Z,1.18
2016-12-06T07:33:53.246Z,1.21
2016-12-06T07:34:53.556Z,1.22
2016-12-06T07:35:53.560Z,1.18
2016-12-06T07:36:53.552Z,1.04
2016-12-06T07:37:53.236Z,1.1
2016-12-06T07:38:53.540Z,0.99
2016-12-06T07:39:53.212Z,0.99
2016-12-06T07:40:53.532Z,1
2016-12-06T07:41:53.528Z,0.92
2016-12-06T07:42:52.872Z,1.03
2016-12-06T07:43:53.520Z,0.92
2016-12-06T07:44:53.516Z,1.06
2016-12-06T07:45:53.188Z,1.04
2016-12-06T07:46:53.504Z,1.06
2016-12-06T07:47:53.500Z,1.1
2016-12-06T07:48:53.496Z,1
2016-12-06T07:49:53.496Z,1.04
2016-12-06T07:50:53.168Z,1.03
2016-12-06T07:51:53.488Z,1.1
2016-12-06T07:52:53.489Z,1.1
2016-12-06T07:53:53.477Z,1.2
2016-12-06T07:54:53.472Z,1.06
2016-12-06T07:55:53.473Z,1.16
2016-12-06T07:56:53.465Z,1.14
2016-12-06T07:57:53.137Z,1.12
2016-12-06T07:58:53.457Z,1.18
2016-12-06T07:59:53.129Z,1.16
2016-12-06T08:00:53.448Z,1.2
2016-12-06T08:01:53.445Z,1.28
2016-12-06T08:02:53.443Z,1.2
2016-12-06T08:03:53.113Z,1.24
2016-12-06T08:04:53.433Z,1.21
2016-12-06T08:05:53.433Z,1.21
2016-12-06T08:06:53.425Z,1.22
2016-12-06T08:07:53.421Z,1.2
2016-12-06T08:08:53.089Z,1.18
2016-12-06T08:09:53.421Z,1.3
2016-12-06T08:10:53.409Z,1.34
2016-12-06T08:11:53.409Z,1.34
2016-12-06T08:12:53.401Z,1.39
2016-12-06T08:13:53.073Z,1.46
2016-12-06T08:14:53.073Z,1.49
2016-12-06T08:15:53.386Z,1.46
2016-12-06T08:16:53.061Z,1.58
2016-12-06T08:17:53.057Z,1.57
2016-12-06T08:18:53.053Z,1.61
2016-12-06T08:19:53.369Z,1.64
2016-12-06T08:20:53.386Z,1.67
2016-12-06T08:21:53.366Z,1.67
2016-12-06T08:22:53.358Z,1.75
2016-12-06T08:23:53.353Z,1.71
2016-12-06T08:24:53.354Z,1.76
2016-12-06T08:25:53.354Z,1.88
2016-12-06T08:26:53.345Z,1.86
2016-12-06T08:27:53.054Z,1.88
2016-12-06T08:28:53.342Z,1.93
2016-12-06T08:29:53.342Z,1.86
2016-12-06T08:30:53.326Z,1.93
2016-12-06T08:31:53.330Z,1.88
2016-12-06T08:32:53.326Z,1.98
2016-12-06T08:33:53.314Z,2.01
2016-12-06T08:34:52.986Z,2.08
2016-12-06T08:35:52.982Z,2.05
2016-12-06T08:36:53.302Z,2.04
2016-12-06T08:37:52.974Z,2.14
2016-12-06T08:38:52.974Z,2.12
2016-12-06T08:39:52.966Z,2.19
2016-12-06T08:40:53.286Z,2.14
2016-12-06T08:41:53.286Z,2.19
2016-12-06T08:42:53.282Z,2.25
2016-12-06T08:43:53.278Z,2.33
2016-12-06T08:44:52.946Z,2.23
2016-12-06T08:45:52.942Z,2.26
2016-12-06T08:46:53.262Z,2.34
2016-12-06T08:47:53.259Z,2.39
2016-12-06T08:48:52.931Z,2.54
2016-12-06T08:49:52.927Z,2.57
2016-12-06T08:50:53.251Z,2.57
2016-12-06T08:51:53.251Z,2.61
2016-12-06T08:52:53.239Z,2.72
2016-12-06T08:53:53.235Z,2.87
2016-12-06T08:54:53.235Z,2.88
2016-12-06T08:55:53.227Z,2.95
2016-12-06T08:56:53.223Z,3
2016-12-06T08:57:53.231Z,2.91
2016-12-06T08:58:52.895Z,3.01
2016-12-06T08:59:53.219Z,3.03
2016-12-06T09:00:53.215Z,3
2016-12-06T09:01:53.207Z,2.98
2016-12-06T09:02:53.203Z,3.03
2016-12-06T09:03:53.207Z,2.93
2016-12-06T09:04:53.199Z,2.83
2016-12-06T09:05:53.195Z,2.88
2016-12-06T09:06:52.867Z,2.8
2016-12-06T09:07:52.859Z,2.83
2016-12-06T09:08:53.179Z,2.87
2016-12-06T09:09:52.852Z,2.9
2016-12-06T09:10:53.171Z,2.91
2016-12-06T09:11:53.171Z,2.98
2016-12-06T09:12:52.843Z,3
2016-12-06T09:13:53.160Z,2.98
2016-12-06T09:14:53.155Z,3.05
2016-12-06T09:15:53.153Z,3.13
2016-12-06T09:16:52.828Z,3.16
2016-12-06T09:17:53.176Z,3.12
2016-12-06T09:18:53.144Z,3.06
2016-12-06T09:19:53.155Z,3.12
2016-12-06T09:20:53.136Z,3.15
2016-12-06T09:21:53.132Z,3.13
2016-12-06T09:22:53.152Z,3
2016-12-06T09:23:53.124Z,3.08
2016-12-06T09:24:53.120Z,2.98
2016-12-06T09:25:53.116Z,3.08
2016-12-06T09:26:53.120Z,2.91
2016-12-06T09:27:53.108Z,3.01
2016-12-06T09:28:53.108Z,2.98
2016-12-06T09:29:53.100Z,3.01
2016-12-06T09:30:53.097Z,3.09
2016-12-06T09:31:53.096Z,3.15
2016-12-06T09:32:53.124Z,3.16
2016-12-06T09:33:53.087Z,3.19
2016-12-06T09:34:53.092Z,3.21
2016-12-06T09:35:53.076Z,3.22
2016-12-06T09:36:53.076Z,3.36
2016-12-06T09:37:53.072Z,3.46
2016-12-06T09:38:53.068Z,3.46
2016-12-06T09:39:53.072Z,3.37
2016-12-06T09:40:53.060Z,3.49
2016-12-06T09:41:53.061Z,3.53
2016-12-06T09:42:52.728Z,3.53
2016-12-06T09:43:52.724Z,3.56
2016-12-06T09:44:52.717Z,3.67
2016-12-06T09:45:53.051Z,3.63
2016-12-06T09:46:53.041Z,3.74
2016-12-06T09:47:53.078Z,3.84
2016-12-06T09:48:53.037Z,3.81
2016-12-06T09:49:52.705Z,3.78
2016-12-06T09:50:52.697Z,3.74
2016-12-06T09:51:53.021Z,3.67
2016-12-06T09:52:52.693Z,3.61
2016-12-06T09:53:53.013Z,3.67
2016-12-06T09:54:53.009Z,3.67
2016-12-06T09:55:53.005Z,3.61
2016-12-06T09:56:53.009Z,3.68
2016-12-06T09:57:52.997Z,3.73
2016-12-06T09:58:53.001Z,3.7
2016-12-06T09:59:52.996Z,3.67
2016-12-06T10:00:52.992Z,3.68
2016-12-06T10:01:52.337Z,3.73
2016-12-06T10:02:52.981Z,3.82
2016-12-06T10:03:52.977Z,3.78
2016-12-06T10:04:52.981Z,3.77
2016-12-06T10:05:52.969Z,3.78
2016-12-06T10:06:52.970Z,3.77
2016-12-06T10:07:52.965Z,3.81
2016-12-06T10:08:52.638Z,3.86
2016-12-06T10:09:52.957Z,3.85
2016-12-06T10:10:52.982Z,3.99
2016-12-06T10:11:52.623Z,4.14
2016-12-06T10:12:52.950Z,4.24
2016-12-06T10:13:52.942Z,4.3
2016-12-06T10:14:52.942Z,4.42
2016-12-06T10:15:52.938Z,4.38
2016-12-06T10:16:52.934Z,4.21
2016-12-06T10:17:52.930Z,4.21
2016-12-06T10:18:52.602Z,4.24
2016-12-06T10:19:52.922Z,4.22
2016-12-06T10:20:52.594Z,4.39
2016-12-06T10:21:52.918Z,4.22
2016-12-06T10:22:52.914Z,4.34
2016-12-06T10:23:52.938Z,4.43
2016-12-06T10:24:52.906Z,4.4
2016-12-06T10:25:52.906Z,4.34
2016-12-06T10:26:52.898Z,4.38
2016-12-06T10:27:52.588Z,4.38
2016-12-06T10:28:52.894Z,4.32
2016-12-06T10:29:52.566Z,4.32
2016-12-06T10:30:52.910Z,4.27
2016-12-06T10:31:52.891Z,4.25
2016-12-06T10:32:52.878Z,4.22
2016-12-06T10:33:52.875Z,4.34
2016-12-06T10:34:52.875Z,4.38
2016-12-06T10:35:52.883Z,4.46
2016-12-06T10:36:52.867Z,4.49
2016-12-06T10:37:52.862Z,4.46
2016-12-06T10:38:52.863Z,4.57
2016-12-06T10:39:52.531Z,4.61
2016-12-06T10:40:52.859Z,4.56
2016-12-06T10:41:52.851Z,4.46
2016-12-06T10:42:52.855Z,4.48
2016-12-06T10:43:52.846Z,4.38
2016-12-06T10:44:52.519Z,4.27
2016-12-06T10:45:52.843Z,4.21
2016-12-06T10:46:52.831Z,4.16
2016-12-06T10:47:52.507Z,4.2
2016-12-06T10:48:52.835Z,4.18
2016-12-06T10:49:52.823Z,4.27
2016-12-06T10:50:52.819Z,4.22
2016-12-06T10:51:52.819Z,4.25
2016-12-06T10:52:52.492Z,4.27
2016-12-06T10:53:52.812Z,4.25
2016-12-06T10:54:52.160Z,4.24
2016-12-06T10:55:52.804Z,4.36
2016-12-06T10:56:52.476Z,4.49
2016-12-06T10:57:52.800Z,4.46
2016-12-06T10:58:52.796Z,4.58
2016-12-06T10:59:52.800Z,4.53
2016-12-06T11:00:52.788Z,4.67
2016-12-06T11:01:52.783Z,4.63
2016-12-06T11:02:52.780Z,4.7
2016-12-06T11:03:52.776Z,4.78
2016-12-06T11:04:52.452Z,4.6
2016-12-06T11:05:52.452Z,4.71
2016-12-06T11:06:52.444Z,4.7
2016-12-06T11:07:52.440Z,4.68
2016-12-06T11:08:52.763Z,4.63
2016-12-06T11:09:52.768Z,4.63
2016-12-06T11:10:52.432Z,4.61
2016-12-06T11:11:52.764Z,4.53
2016-12-06T11:12:52.752Z,4.48
2016-12-06T11:13:52.748Z,4.48
2016-12-06T11:14:52.744Z,4.46
2016-12-06T11:15:52.744Z,4.49
2016-12-06T11:16:52.737Z,4.56
2016-12-06T11:17:52.408Z,4.52
2016-12-06T11:18:52.732Z,4.56
2016-12-06T11:19:52.729Z,4.57
2016-12-06T11:20:52.725Z,4.48
2016-12-06T11:21:52.721Z,4.48
2016-12-06T11:22:52.389Z,4.48
2016-12-06T11:23:52.721Z,4.5
2016-12-06T11:24:52.391Z,4.5
2016-12-06T11:25:52.725Z,4.48
2016-12-06T11:26:52.704Z,4.56
2016-12-06T11:27:52.702Z,4.57
2016-12-06T11:28:52.701Z,4.67
2016-12-06T11:29:52.369Z,4.68
2016-12-06T11:30:52.369Z,4.71
2016-12-06T11:31:52.697Z,4.83
2016-12-06T11:32:52.685Z,4.79
2016-12-06T11:33:52.693Z,4.9
2016-12-06T11:34:52.357Z,4.94
2016-12-06T11:35:52.677Z,4.97
2016-12-06T11:36:52.349Z,4.94
2016-12-06T11:37:52.673Z,4.98
2016-12-06T11:38:52.674Z,5.08
2016-12-06T11:39:52.666Z,5.07
2016-12-06T11:40:52.809Z,5.05
2016-12-06T11:41:52.657Z,5.05
2016-12-06T11:42:52.657Z,5.15
2016-12-06T11:43:52.654Z,5.18
2016-12-06T11:44:52.653Z,5.25
2016-12-06T11:45:52.645Z,5.31
2016-12-06T11:46:52.657Z,5.26
2016-12-06T11:47:52.646Z,5.25
2016-12-06T11:48:52.645Z,5.29
2016-12-06T11:49:52.633Z,5.28
2016-12-06T11:50:52.633Z,5.25
2016-12-06T11:51:52.626Z,5.22
2016-12-06T11:52:52.629Z,5.22
2016-12-06T11:53:52.622Z,5.18
2016-12-06T11:54:52.623Z,5.18
2016-12-06T11:55:52.614Z,5.19
2016-12-06T11:56:52.618Z,5.23
2016-12-06T11:57:52.610Z,5.18
2016-12-06T11:58:52.610Z,5.29
2016-12-06T11:59:52.602Z,5.34
2016-12-06T12:00:52.278Z,5.34
2016-12-06T12:01:52.274Z,5.37
2016-12-06T12:02:52.594Z,5.33
2016-12-06T12:03:52.590Z,5.31
2016-12-06T12:04:52.620Z,5.28
2016-12-06T12:05:52.586Z,5.37
2016-12-06T12:06:52.582Z,5.33
2016-12-06T12:07:52.583Z,5.34
2016-12-06T12:08:52.578Z,5.34
2016-12-06T12:09:52.578Z,5.37
2016-12-06T12:10:52.570Z,5.37
2016-12-06T12:11:52.566Z,5.37
2016-12-06T12:12:52.566Z,5.36
2016-12-06T12:13:52.238Z,5.31
2016-12-06T12:14:52.559Z,5.31
2016-12-06T12:15:52.226Z,5.31
2016-12-06T12:16:52.554Z,5.28
2016-12-06T12:17:52.551Z,5.33
2016-12-06T12:18:52.548Z,5.26
2016-12-06T12:19:52.547Z,5.19
2016-12-06T12:20:52.543Z,5.19
2016-12-06T12:21:52.539Z,5.18
2016-12-06T12:22:52.539Z,5.13
2016-12-06T12:23:52.214Z,5.2
2016-12-06T12:24:52.531Z,5.18
2016-12-06T12:25:52.527Z,5.18
2016-12-06T12:26:52.527Z,5.26
2016-12-06T12:27:52.523Z,5.28
2016-12-06T12:28:52.531Z,5.29
2016-12-06T12:29:52.515Z,5.31
2016-12-06T12:30:52.515Z,5.34
2016-12-06T12:31:52.191Z,5.38
2016-12-06T12:32:52.515Z,5.33
2016-12-06T12:33:52.512Z,5.36
2016-12-06T12:34:52.539Z,5.33
2016-12-06T12:35:52.500Z,5.33
2016-12-06T12:36:52.475Z,5.36
2016-12-06T12:37:52.492Z,5.34
2016-12-06T12:38:52.496Z,5.41
2016-12-06T12:39:52.488Z,5.38
2016-12-06T12:40:52.488Z,5.26
2016-12-06T12:41:52.484Z,5.31
2016-12-06T12:42:52.484Z,5.23
2016-12-06T12:43:52.156Z,5.19
2016-12-06T12:44:52.476Z,5.1
2016-12-06T12:45:52.468Z,5.08
2016-12-06T12:46:52.148Z,5.13
2016-12-06T12:47:52.464Z,5.1
2016-12-06T12:48:52.460Z,5.15
2016-12-06T12:49:52.456Z,5.2
2016-12-06T12:50:52.464Z,5.23
2016-12-06T12:51:52.452Z,5.25
2016-12-06T12:52:52.448Z,5.2
2016-12-06T12:53:52.448Z,5.22
2016-12-06T12:54:52.448Z,5.19
2016-12-06T12:55:52.116Z,5.08
2016-12-06T12:56:52.444Z,5.07
2016-12-06T12:57:52.437Z,5.08
2016-12-06T12:58:52.112Z,5.12
2016-12-06T12:59:52.432Z,5.12
2016-12-06T13:00:52.428Z,5.16
2016-12-06T13:01:52.104Z,5.2
2016-12-06T13:02:52.096Z,5.2
2016-12-06T13:03:52.420Z,5.2
2016-12-06T13:04:52.092Z,5.16
2016-12-06T13:05:52.092Z,5.2
2016-12-06T13:06:52.408Z,5.1
2016-12-06T13:07:52.405Z,5.12
2016-12-06T13:08:52.408Z,5.01
2016-12-06T13:09:52.408Z,5.01
2016-12-06T13:10:52.396Z,5.13
2016-12-06T13:11:52.069Z,5.1
2016-12-06T13:12:52.069Z,5.04
2016-12-06T13:13:52.389Z,5.12
2016-12-06T13:14:52.385Z,5.07
2016-12-06T13:15:52.057Z,5.1
2016-12-06T13:16:52.385Z,5.04
2016-12-06T13:17:52.381Z,5.04
2016-12-06T13:18:52.373Z,5.01
2016-12-06T13:19:52.369Z,4.95
2016-12-06T13:20:52.369Z,4.89
2016-12-06T13:21:52.365Z,4.87
2016-12-06T13:22:52.361Z,4.79